createdAt,value
2018-01-16T00:02:01.954Z,1.97
2018-01-16T00:04:30.229Z,1.95
2018-01-16T00:06:58.530Z,1.95
2018-01-16T00:09:26.985Z,1.94
2018-01-16T00:11:55.358Z,1.94
2018-01-16T00:14:23.631Z,1.91
2018-01-16T00:16:51.932Z,1.96
2018-01-16T00:19:20.210Z,1.97
2018-01-16T00:21:48.664Z,1.97
2018-01-16T00:24:17.099Z,2.01
2018-01-16T00:26:45.390Z,2.03
2018-01-16T00:29:13.667Z,2.00
2018-01-16T00:31:41.994Z,2.09
2018-01-16T00:34:10.274Z,2.07
2018-01-16T00:36:38.579Z,2.10
2018-01-16T00:39:06.847Z,2.13
2018-01-16T00:41:35.136Z,2.10
2018-01-16T00:44:03.427Z,2.13
2018-01-16T00:46:32.035Z,2.17
2018-01-16T00:49:00.298Z,2.15
2018-01-16T00:51:28.598Z,2.08
2018-01-16T00:53:56.879Z,2.04
2018-01-16T00:56:25.331Z,2.01
2018-01-16T00:58:53.615Z,1.91
2018-01-16T01:01:22.094Z,1.92
2018-01-16T01:03:50.555Z,1.85
2018-01-16T01:06:18.845Z,1.80
2018-01-16T01:08:47.163Z,1.78
2018-01-16T01:11:15.611Z,1.73
2018-01-16T01:13:43.919Z,1.70
2018-01-16T01:16:12.217Z,1.63
2018-01-16T01:18:40.594Z,1.54
2018-01-16T01:21:08.915Z,1.53
2018-01-16T01:23:37.182Z,1.45
2018-01-16T01:26:05.474Z,1.46
2018-01-16T01:28:33.732Z,1.44
2018-01-16T01:31:02.018Z,1.43
2018-01-16T01:33:30.467Z,1.46
2018-01-16T01:35:58.778Z,1.48
2018-01-16T01:38:27.067Z,1.48
2018-01-16T01:40:55.374Z,1.42
2018-01-16T01:43:23.702Z,1.48
2018-01-16T01:45:51.991Z,1.45
2018-01-16T01:48:20.318Z,1.41
2018-01-16T01:50:48.606Z,1.42
2018-01-16T01:53:17.083Z,1.39
2018-01-16T01:55:45.390Z,1.46
2018-01-16T01:58:13.681Z,1.39
2018-01-16T02:00:41.987Z,1.35
2018-01-16T02:03:10.246Z,1.32
2018-01-16T02:05:38.546Z,1.25
2018-01-16T02:08:06.948Z,1.23
2018-01-16T02:10:35.480Z,1.10
2018-01-16T02:13:03.783Z,1.07
2018-01-16T02:15:32.219Z,0.99
2018-01-16T02:18:00.511Z,1.03
2018-01-16T02:20:28.981Z,0.96
2018-01-16T02:22:57.258Z,0.93
2018-01-16T02:25:25.558Z,0.94
2018-01-16T02:27:54.710Z,0.89
2018-01-16T02:30:23.018Z,0.91
2018-01-16T02:32:51.300Z,0.96
2018-01-16T02:35:19.587Z,0.93
2018-01-16T02:37:47.847Z,0.93
2018-01-16T02:40:16.142Z,0.93
2018-01-16T02:42:44.440Z,0.94
2018-01-16T02:45:12.884Z,0.93
2018-01-16T02:47:41.355Z,0.95
2018-01-16T02:50:09.654Z,0.96
2018-01-16T02:52:38.163Z,1.03
2018-01-16T02:55:06.472Z,1.07
2018-01-16T02:57:34.779Z,1.09
2018-01-16T03:00:03.031Z,1.10
2018-01-16T03:02:31.332Z,1.14
2018-01-16T03:04:59.763Z,1.18
2018-01-16T03:07:28.126Z,1.21
2018-01-16T03:09:56.411Z,1.17
2018-01-16T03:12:24.816Z,1.23
2018-01-16T03:14:53.102Z,1.29
2018-01-16T03:17:21.416Z,1.28
2018-01-16T03:19:49.827Z,1.30
2018-01-16T03:22:18.340Z,1.32
2018-01-16T03:24:46.606Z,1.31
2018-01-16T03:27:15.020Z,1.30
2018-01-16T03:29:43.822Z,1.34
2018-01-16T03:32:12.128Z,1.31
2018-01-16T03:34:40.651Z,1.42
2018-01-16T03:37:08.939Z,1.47
2018-01-16T03:39:37.192Z,1.45
2018-01-16T03:42:05.637Z,1.44
2018-01-16T03:44:33.935Z,1.40
2018-01-16T03:47:02.329Z,1.36
2018-01-16T03:49:30.662Z,1.43
2018-01-16T03:51:59.073Z,1.44
2018-01-16T03:54:27.323Z,1.47
2018-01-16T03:56:55.829Z,1.49
2018-01-16T03:59:24.081Z,1.57
2018-01-16T04:01:52.378Z,1.63
2018-01-16T04:04:20.642Z,1.61
2018-01-16T04:06:48.934Z,1.64
2018-01-16T04:09:17.184Z,1.70
2018-01-16T04:11:45.486Z,1.69
2018-01-16T04:14:13.734Z,1.72
2018-01-16T04:16:42.048Z,1.77
2018-01-16T04:19:10.298Z,1.81
2018-01-16T04:21:38.606Z,1.86
2018-01-16T04:24:06.849Z,1.92
2018-01-16T04:26:35.162Z,1.90
2018-01-16T04:29:03.446Z,1.95
2018-01-16T04:31:32.173Z,1.99
2018-01-16T04:34:01.018Z,2.03
2018-01-16T04:36:29.483Z,2.10
2018-01-16T04:38:58.104Z,2.09
2018-01-16T04:41:26.652Z,2.13
2018-01-16T04:43:54.959Z,2.17
2018-01-16T04:46:23.237Z,2.20
2018-01-16T04:48:51.636Z,2.19
2018-01-16T04:51:20.342Z,2.26
2018-01-16T04:53:48.626Z,2.24
2018-01-16T04:56:18.336Z,2.27
2018-01-16T04:58:47.133Z,2.29
2018-01-16T05:04:11.026Z,2.31
2018-01-16T05:06:39.793Z,2.32
2018-01-16T05:09:08.206Z,2.38
2018-01-16T05:11:36.730Z,2.43
2018-01-16T05:14:09.041Z,2.38
2018-01-16T05:16:38.764Z,2.42
2018-01-16T05:19:07.327Z,2.41
2018-01-16T05:21:35.589Z,2.40
2018-01-16T05:24:03.830Z,2.46
2018-01-16T05:26:32.307Z,2.40
2018-01-16T05:29:00.801Z,2.48
2018-01-16T05:31:29.257Z,2.48
2018-01-16T05:33:57.696Z,2.45
2018-01-16T05:36:26.041Z,2.45
2018-01-16T05:38:54.941Z,2.50
2018-01-16T05:41:23.301Z,2.56
2018-01-16T05:43:51.749Z,2.57
2018-01-16T05:46:24.690Z,2.58
2018-01-16T05:48:53.861Z,2.62
2018-01-16T05:51:22.221Z,2.68
2018-01-16T05:53:55.398Z,2.62
2018-01-16T05:56:24.648Z,2.62
2018-01-16T05:58:52.954Z,2.63
2018-01-16T06:01:22.677Z,2.64
2018-01-16T06:03:52.018Z,2.69
2018-01-16T06:06:24.013Z,2.67
2018-01-16T06:08:52.530Z,2.72
2018-01-16T06:11:21.181Z,2.73
2018-01-16T06:13:49.501Z,2.77
2018-01-16T06:16:18.339Z,2.77
2018-01-16T06:18:46.640Z,2.88
2018-01-16T06:21:14.948Z,2.86
2018-01-16T06:23:43.224Z,2.89
2018-01-16T06:26:11.493Z,2.92
2018-01-16T06:28:39.753Z,2.88
2018-01-16T06:31:08.028Z,2.89
2018-01-16T06:33:36.281Z,2.85
2018-01-16T06:36:04.568Z,2.85
2018-01-16T06:38:32.816Z,2.84
2018-01-16T06:41:01.249Z,2.74
2018-01-16T06:43:29.493Z,2.72
2018-01-16T06:45:57.770Z,2.75
2018-01-16T06:48:26.046Z,2.81
2018-01-16T06:50:54.339Z,2.81
2018-01-16T06:53:22.596Z,2.82
2018-01-16T06:55:50.904Z,2.78
2018-01-16T06:58:19.161Z,2.72
2018-01-16T07:00:47.465Z,2.79
2018-01-16T07:03:15.747Z,2.83
2018-01-16T07:05:44.045Z,2.89
2018-01-16T07:08:12.338Z,2.93
2018-01-16T07:10:40.602Z,2.94
2018-01-16T07:13:08.908Z,3.01
2018-01-16T07:15:37.181Z,2.98
2018-01-16T07:18:05.450Z,3.11
2018-01-16T07:20:33.799Z,3.19
2018-01-16T07:23:02.301Z,3.25
2018-01-16T07:25:30.600Z,3.28
2018-01-16T07:27:58.900Z,3.29
2018-01-16T07:30:27.166Z,3.28
2018-01-16T07:32:55.421Z,3.29
2018-01-16T07:35:23.748Z,3.31
2018-01-16T07:37:52.055Z,3.38
2018-01-16T07:40:20.505Z,3.48
2018-01-16T07:42:48.940Z,3.46
2018-01-16T07:45:17.249Z,3.47
2018-01-16T07:47:45.690Z,3.41
2018-01-16T07:50:14.028Z,3.39
2018-01-16T07:52:42.297Z,3.43
2018-01-16T07:55:10.756Z,3.50
2018-01-16T07:57:38.991Z,3.55
2018-01-16T08:00:07.296Z,3.55
2018-01-16T08:02:35.557Z,3.46
2018-01-16T08:05:03.864Z,3.56
2018-01-16T08:07:32.326Z,3.57
2018-01-16T08:10:00.636Z,3.55
2018-01-16T08:12:29.858Z,3.62
2018-01-16T08:14:58.121Z,3.71
2018-01-16T08:17:26.575Z,3.74
2018-01-16T08:19:55.241Z,3.77
2018-01-16T08:22:23.926Z,3.78
2018-01-16T08:24:52.177Z,3.95
2018-01-16T08:27:20.609Z,4.04
2018-01-16T08:29:49.049Z,4.23
2018-01-16T08:32:17.382Z,4.13
2018-01-16T08:34:45.816Z,4.28
2018-01-16T08:37:14.156Z,4.26
2018-01-16T08:39:42.448Z,4.40
2018-01-16T08:42:10.821Z,4.41
2018-01-16T08:44:39.147Z,4.54
2018-01-16T08:47:07.638Z,4.47
2018-01-16T08:49:36.096Z,4.49
2018-01-16T08:52:04.436Z,4.61
2018-01-16T08:54:32.702Z,4.54
2018-01-16T08:57:01.004Z,4.68
2018-01-16T08:59:29.321Z,4.68
2018-01-16T09:01:57.661Z,4.83
2018-01-16T09:04:25.921Z,4.87
2018-01-16T09:06:54.805Z,4.90
2018-01-16T09:09:23.558Z,5.00
2018-01-16T09:11:52.033Z,5.01
2018-01-16T09:14:20.528Z,4.93
2018-01-16T09:16:49.001Z,5.04
2018-01-16T09:19:17.242Z,5.26
2018-01-16T09:21:45.553Z,5.49
2018-01-16T09:24:13.821Z,5.70
2018-01-16T09:26:42.093Z,5.65
2018-01-16T09:29:10.354Z,5.68
2018-01-16T09:31:38.649Z,5.62
2018-01-16T09:34:06.915Z,5.59
2018-01-16T09:36:35.261Z,5.59
2018-01-16T09:39:03.645Z,5.51
2018-01-16T09:41:31.977Z,5.60
2018-01-16T09:44:00.341Z,5.65
2018-01-16T09:46:28.613Z,5.77
2018-01-16T09:48:56.867Z,5.80
2018-01-16T09:51:25.616Z,5.66
2018-01-16T09:53:53.880Z,5.64
2018-01-16T09:56:22.329Z,5.62
2018-01-16T09:58:50.608Z,5.66
2018-01-16T10:01:19.097Z,5.72
2018-01-16T10:03:47.556Z,5.71
2018-01-16T10:06:15.953Z,5.60
2018-01-16T10:08:44.264Z,5.70
2018-01-16T10:11:12.584Z,5.73
2018-01-16T10:13:40.948Z,5.70
2018-01-16T10:16:09.801Z,5.62
2018-01-16T10:18:38.196Z,5.66
2018-01-16T10:21:06.669Z,5.56
2018-01-16T10:23:35.089Z,5.54
2018-01-16T10:26:03.353Z,5.47
2018-01-16T10:28:31.852Z,5.45
2018-01-16T10:31:00.196Z,5.47
2018-01-16T10:33:28.601Z,5.50
2018-01-16T10:35:56.946Z,5.58
2018-01-16T10:38:25.203Z,5.73
2018-01-16T10:40:53.505Z,5.75
2018-01-16T10:43:21.788Z,5.75
2018-01-16T10:45:50.212Z,5.88
2018-01-16T10:48:18.460Z,5.97
2018-01-16T10:50:47.037Z,6.00
2018-01-16T10:53:15.293Z,5.99
2018-01-16T10:56:46.726Z,5.94
2018-01-16T10:59:23.678Z,6.05
2018-01-16T11:01:52.165Z,6.03
2018-01-16T11:04:20.612Z,5.97
2018-01-16T11:06:49.197Z,6.07
2018-01-16T11:09:17.464Z,6.03
2018-01-16T11:11:45.788Z,5.99
2018-01-16T11:14:14.118Z,6.92
2018-01-16T11:16:42.656Z,7.81
2018-01-16T11:19:10.972Z,7.06
2018-01-16T11:21:39.317Z,8.18
2018-01-16T11:24:07.660Z,7.88
2018-01-16T11:26:36.021Z,7.78
2018-01-16T11:29:04.408Z,7.02
2018-01-16T11:31:32.875Z,6.79
2018-01-16T11:34:01.306Z,6.47
2018-01-16T11:36:29.647Z,6.35
2018-01-16T11:38:58.430Z,6.28
2018-01-16T11:41:27.838Z,6.23
2018-01-16T11:43:56.111Z,6.28
2018-01-16T11:46:24.405Z,6.15
2018-01-16T11:48:52.702Z,6.19
2018-01-16T11:51:21.166Z,5.84
2018-01-16T11:53:49.596Z,5.97
2018-01-16T11:56:17.893Z,6.11
2018-01-16T11:58:46.351Z,5.98
2018-01-16T12:01:14.677Z,6.04
2018-01-16T12:03:42.996Z,6.25
2018-01-16T12:06:11.335Z,6.67
2018-01-16T12:08:39.603Z,7.39
2018-01-16T12:11:07.982Z,7.74
2018-01-16T12:13:36.437Z,10.34
2018-01-16T12:16:04.761Z,10.08
2018-01-16T12:18:33.395Z,10.19
2018-01-16T12:21:01.714Z,11.16
2018-01-16T12:23:30.084Z,9.21
2018-01-16T12:25:58.377Z,8.43
2018-01-16T12:28:26.702Z,8.38
2018-01-16T12:30:55.055Z,7.49
2018-01-16T12:33:23.501Z,7.30
2018-01-16T12:35:51.976Z,7.33
2018-01-16T12:38:20.290Z,7.63
2018-01-16T12:40:48.649Z,7.37
2018-01-16T12:43:16.924Z,7.11
2018-01-16T12:45:48.089Z,7.00
2018-01-16T12:48:16.646Z,6.98
2018-01-16T12:50:44.951Z,6.92
2018-01-16T12:53:13.360Z,6.85
2018-01-16T12:55:41.655Z,6.99
2018-01-16T12:58:09.917Z,7.18
2018-01-16T13:00:38.228Z,7.30
2018-01-16T13:03:06.732Z,7.62
2018-01-16T13:05:35.492Z,7.68
2018-01-16T13:08:03.766Z,7.10
2018-01-16T13:10:32.068Z,6.96
2018-01-16T13:13:00.368Z,6.78
2018-01-16T13:15:28.665Z,6.78
2018-01-16T13:17:58.175Z,6.59
2018-01-16T13:20:26.645Z,6.53
2018-01-16T13:22:54.897Z,6.37
2018-01-16T13:25:23.356Z,6.36
2018-01-16T13:27:51.680Z,6.21
2018-01-16T13:30:20.480Z,6.38
2018-01-16T13:32:49.064Z,6.15
2018-01-16T13:35:17.652Z,6.05
2018-01-16T13:37:46.821Z,5.97
2018-01-16T13:40:15.192Z,6.03
2018-01-16T13:42:43.831Z,6.10
2018-01-16T13:45:12.301Z,6.56
2018-01-16T13:47:40.612Z,6.22
2018-01-16T13:50:09.036Z,6.20
2018-01-16T13:52:37.505Z,6.15
2018-01-16T13:55:06.700Z,6.25
2018-01-16T13:57:35.025Z,6.16
2018-01-16T14:00:03.286Z,5.89
2018-01-16T14:02:31.597Z,5.87
2018-01-16T14:04:59.888Z,5.80
2018-01-16T14:07:28.224Z,5.77
2018-01-16T14:09:56.566Z,5.55
2018-01-16T14:12:24.882Z,5.71
2018-01-16T14:14:53.423Z,5.77
2018-01-16T14:17:21.773Z,5.69
2018-01-16T14:19:50.196Z,5.63
2018-01-16T14:22:18.557Z,5.72
2018-01-16T14:24:46.972Z,5.66
2018-01-16T14:27:15.339Z,5.57
2018-01-16T14:29:44.577Z,5.51
2018-01-16T14:32:12.875Z,5.53
2018-01-16T14:34:41.108Z,5.57
2018-01-16T14:37:09.540Z,5.51
2018-01-16T14:39:37.809Z,5.52
2018-01-16T14:42:06.351Z,5.51
2018-01-16T14:44:34.608Z,5.48
2018-01-16T14:47:03.889Z,5.48
2018-01-16T14:49:32.114Z,5.49
2018-01-16T14:52:00.623Z,5.34
2018-01-16T14:54:28.942Z,5.23
2018-01-16T14:56:57.353Z,5.28
2018-01-16T14:59:25.720Z,5.29
2018-01-16T15:01:54.185Z,5.24
2018-01-16T15:04:22.648Z,5.17
2018-01-16T15:06:51.019Z,5.27
2018-01-16T15:09:19.713Z,5.14
2018-01-16T15:11:48.196Z,5.03
2018-01-16T15:14:17.333Z,5.06
2018-01-16T15:16:47.406Z,5.02
2018-01-16T15:19:15.644Z,4.94
2018-01-16T15:21:44.333Z,4.94
2018-01-16T15:24:13.944Z,4.97
2018-01-16T15:26:44.544Z,4.95
2018-01-16T15:29:13.520Z,5.01
2018-01-16T15:31:47.398Z,4.92
2018-01-16T15:34:16.682Z,4.94
2018-01-16T15:36:45.002Z,4.86
2018-01-16T15:39:13.261Z,4.93
2018-01-16T15:41:41.585Z,4.85
2018-01-16T15:44:09.821Z,4.88
2018-01-16T15:46:38.109Z,4.89
2018-01-16T15:49:06.373Z,4.87
2018-01-16T15:51:34.668Z,4.84
2018-01-16T15:54:02.961Z,4.85
2018-01-16T15:56:31.425Z,4.80
2018-01-16T15:58:59.754Z,4.76
2018-01-16T16:01:28.080Z,4.72
2018-01-16T16:03:56.397Z,4.77
2018-01-16T16:06:24.697Z,4.64
2018-01-16T16:08:53.045Z,4.70
2018-01-16T16:11:21.476Z,4.63
2018-01-16T16:13:50.113Z,4.66
2018-01-16T16:16:18.690Z,4.50
2018-01-16T16:18:47.304Z,4.47
2018-01-16T16:21:15.697Z,4.37
2018-01-16T16:23:43.978Z,4.37
2018-01-16T16:26:12.285Z,4.43
2018-01-16T16:28:40.553Z,4.33
2018-01-16T16:31:08.846Z,4.29
2018-01-16T16:33:37.092Z,4.30
2018-01-16T16:36:05.376Z,4.17
2018-01-16T16:38:33.668Z,4.05
2018-01-16T16:41:01.949Z,3.96
2018-01-16T16:43:30.286Z,4.02
2018-01-16T16:45:58.608Z,3.84
2018-01-16T16:48:26.969Z,3.74
2018-01-16T16:50:55.376Z,3.64
2018-01-16T16:53:23.800Z,3.55
2018-01-16T16:55:52.077Z,3.56
2018-01-16T16:58:20.353Z,3.48
2018-01-16T17:00:48.654Z,3.48
2018-01-16T17:03:17.081Z,3.40
2018-01-16T17:05:52.027Z,3.37
2018-01-16T17:08:20.290Z,3.35
2018-01-16T17:10:48.597Z,3.35
2018-01-16T17:13:17.004Z,3.36
2018-01-16T17:15:45.274Z,3.28
2018-01-16T17:18:13.555Z,3.33
2018-01-16T17:20:41.854Z,3.35
2018-01-16T17:23:10.132Z,3.29
2018-01-16T17:25:38.561Z,3.39
2018-01-16T17:28:06.837Z,3.43
2018-01-16T17:30:35.329Z,3.49
2018-01-16T17:33:03.800Z,3.44
2018-01-16T17:35:32.285Z,3.47
2018-01-16T17:38:00.556Z,3.49
2018-01-16T17:40:28.836Z,3.43
2018-01-16T17:42:57.125Z,3.42
2018-01-16T17:45:25.613Z,3.43
2018-01-16T17:47:53.875Z,3.55
2018-01-16T17:50:22.192Z,3.48
2018-01-16T17:52:50.628Z,3.47
2018-01-16T17:55:18.900Z,3.51
2018-01-16T17:57:47.160Z,3.44
2018-01-16T18:00:15.429Z,3.39
2018-01-16T18:02:43.720Z,3.35
2018-01-16T18:05:12.033Z,3.24
2018-01-16T18:07:40.293Z,3.22
2018-01-16T18:10:08.593Z,3.23
2018-01-16T18:12:37.022Z,3.18
2018-01-16T18:15:05.529Z,3.24
2018-01-16T18:17:33.989Z,3.15
2018-01-16T18:20:02.460Z,3.19
2018-01-16T18:22:31.028Z,3.01
2018-01-16T18:24:59.368Z,2.91
2018-01-16T18:27:27.944Z,2.98
2018-01-16T18:29:56.302Z,3.05
2018-01-16T18:32:24.703Z,2.91
2018-01-16T18:34:53.839Z,2.99
2018-01-16T18:37:22.260Z,2.88
2018-01-16T18:39:50.700Z,2.85
2018-01-16T18:42:19.044Z,2.82
2018-01-16T18:44:47.472Z,2.74
2018-01-16T18:47:15.773Z,2.86
2018-01-16T18:49:44.044Z,2.81
2018-01-16T18:52:12.379Z,2.78
2018-01-16T18:54:40.693Z,2.77
2018-01-16T18:57:09.101Z,2.77
2018-01-16T18:59:40.870Z,2.78
2018-01-16T19:02:09.180Z,2.70
2018-01-16T19:04:41.576Z,2.70
2018-01-16T19:07:09.885Z,2.72
2018-01-16T19:09:38.397Z,2.66
2018-01-16T19:12:06.741Z,2.74
2018-01-16T19:14:35.181Z,2.68
2018-01-16T19:17:03.541Z,2.71
2018-01-16T19:19:36.047Z,2.73
2018-01-16T19:22:05.002Z,2.77
2018-01-16T19:24:35.038Z,2.79
2018-01-16T19:27:04.001Z,2.87
2018-01-16T19:29:32.285Z,2.84
2018-01-16T19:32:00.630Z,2.87
2018-01-16T19:34:28.972Z,2.90
2018-01-16T19:36:57.273Z,2.92
2018-01-16T19:39:25.525Z,2.99
2018-01-16T19:41:54.840Z,3.02
2018-01-16T19:44:23.321Z,3.07
2018-01-16T19:46:51.710Z,3.03
2018-01-16T19:49:19.998Z,3.09
2018-01-16T19:51:48.264Z,3.00
2018-01-16T19:54:23.223Z,3.09
2018-01-16T19:56:51.538Z,3.06
2018-01-16T19:59:19.772Z,3.04
2018-01-16T20:01:48.216Z,3.03
2018-01-16T20:04:16.488Z,2.99
2018-01-16T20:06:44.789Z,2.95
2018-01-16T20:09:13.080Z,3.09
2018-01-16T20:11:41.468Z,3.01
2018-01-16T20:14:09.722Z,2.96
2018-01-16T20:16:38.089Z,2.89
2018-01-16T20:19:06.372Z,2.91
2018-01-16T20:21:34.758Z,2.98
2018-01-16T20:24:03.098Z,2.96
2018-01-16T20:26:31.403Z,3.03
2018-01-16T20:28:59.661Z,2.88
2018-01-16T20:31:28.155Z,2.88
2018-01-16T20:33:57.651Z,2.85
2018-01-16T20:36:26.365Z,2.97
2018-01-16T20:38:54.813Z,2.92
2018-01-16T20:41:23.135Z,2.95
2018-01-16T20:43:51.409Z,2.86
2018-01-16T20:46:19.731Z,2.90
2018-01-16T20:48:48.010Z,3.00
2018-01-16T20:51:16.320Z,2.92
2018-01-16T20:53:44.560Z,2.91
2018-01-16T20:56:12.876Z,2.85
2018-01-16T20:58:41.116Z,2.96
2018-01-16T21:01:09.468Z,2.92
2018-01-16T21:03:37.784Z,2.93
2018-01-16T21:06:06.293Z,2.95
2018-01-16T21:08:34.559Z,2.93
2018-01-16T21:11:03.020Z,2.94
2018-01-16T21:13:31.469Z,2.91
2018-01-16T21:16:00.196Z,2.86
2018-01-16T21:18:28.632Z,2.94
2018-01-16T21:21:00.763Z,2.92
2018-01-16T21:23:29.604Z,2.94
2018-01-16T21:25:58.238Z,2.95
2018-01-16T21:28:27.315Z,2.92
2018-01-16T21:30:55.709Z,2.98
2018-01-16T21:33:24.288Z,2.98
2018-01-16T21:35:52.595Z,2.85
2018-01-16T21:38:21.885Z,2.95
2018-01-16T21:40:53.141Z,2.97
2018-01-16T21:43:24.746Z,2.93
2018-01-16T21:45:54.082Z,2.96
2018-01-16T21:48:22.740Z,2.95
2018-01-16T21:50:53.429Z,2.92
2018-01-16T21:53:26.066Z,2.93
2018-01-16T21:55:58.027Z,2.95
2018-01-16T21:58:28.246Z,2.89
2018-01-16T22:00:56.704Z,2.90
2018-01-16T22:03:25.148Z,2.92
2018-01-16T22:05:53.450Z,2.88
2018-01-16T22:08:21.759Z,2.97
2018-01-16T22:10:50.060Z,2.82
2018-01-16T22:13:18.465Z,2.79
2018-01-16T22:15:46.744Z,2.75
2018-01-16T22:18:15.031Z,2.84
2018-01-16T22:20:43.316Z,2.78
2018-01-16T22:23:11.573Z,2.87
2018-01-16T22:25:40.290Z,2.84
2018-01-16T22:28:08.714Z,2.84
2018-01-16T22:30:37.041Z,2.78
2018-01-16T22:33:05.434Z,2.88
2018-01-16T22:35:33.900Z,2.87
2018-01-16T22:38:02.368Z,2.83
2018-01-16T22:40:30.650Z,2.66
2018-01-16T22:43:00.919Z,2.61
2018-01-16T22:45:31.356Z,2.62
2018-01-16T22:47:59.757Z,2.67
2018-01-16T22:50:28.080Z,2.73
2018-01-16T22:52:56.327Z,2.65
2018-01-16T22:55:24.807Z,2.72
2018-01-16T22:57:55.129Z,2.72
2018-01-16T23:00:26.356Z,2.61
2018-01-16T23:02:54.675Z,2.49
2018-01-16T23:05:22.954Z,2.50
2018-01-16T23:07:51.288Z,2.39
2018-01-16T23:10:19.590Z,2.34
2018-01-16T23:12:48.249Z,2.22
2018-01-16T23:15:16.520Z,2.21
2018-01-16T23:17:44.841Z,2.21
2018-01-16T23:20:13.338Z,2.10
2018-01-16T23:22:42.369Z,2.11
2018-01-16T23:25:10.677Z,2.08
2018-01-16T23:27:38.949Z,2.07
2018-01-16T23:30:07.239Z,2.04
2018-01-16T23:32:35.676Z,2.07
2018-01-16T23:35:04.012Z,2.02
2018-01-16T23:37:32.273Z,1.93
2018-01-16T23:40:00.517Z,1.86
2018-01-16T23:42:29.533Z,1.85
2018-01-16T23:45:01.249Z,1.82
2018-01-16T23:47:30.728Z,1.74
2018-01-16T23:49:59.189Z,1.74
2018-01-16T23:52:27.653Z,1.68
2018-01-16T23:54:56.225Z,1.70
2018-01-16T23:57:24.592Z,1.67
2018-01-16T23:59:52.882Z,1.63
